Terminal Aerodrome Forecast
Issued by NWS

Home | Current Version | Previous Version | Text Only | Print | Product List | Glossary On
Versions: 1 2 3 4 5 6 7 8 9 10 11 12 13 14 15 16 17
108
FTUS46 KMFR 260238 AAA
TAFOTH
TAF AMD
KOTH 260238Z 2603/2624 22008KT P6SM SCT120
     FM260700 15005KT P6SM BKN150 WS020/20030KT
     FM261000 16008G15KT P6SM -RA SCT020 OVC050 WS015/20030KT
     FM261900 21012KT P6SM -RA BKN030 OVC050=

USA.gov is the U.S. government's official web portal to all federal, state and local government web resources and services.